createdAt,value
2022-12-31T09:06:05.348Z,97.13
2022-12-31T09:09:03.262Z,95.65
2022-12-31T09:12:04.335Z,91.43
2022-12-31T09:14:48.378Z,90.68
2022-12-31T09:17:41.539Z,90.90
2022-12-31T09:20:20.394Z,81.60
2022-12-31T09:22:48.627Z,75.80
2022-12-31T09:25:19.365Z,74.70
2022-12-31T09:28:16.793Z,68.88
2022-12-31T09:31:13.472Z,67.22
2022-12-31T09:33:54.756Z,60.53
2022-12-31T09:37:01.064Z,72.05
2022-12-31T09:39:47.758Z,58.47
2022-12-31T09:42:47.942Z,65.22
2022-12-31T09:46:06.374Z,64.63
2022-12-31T09:49:05.109Z,55.97
2022-12-31T09:52:28.001Z,51.25
2022-12-31T09:55:53.248Z,47.20
2022-12-31T09:58:38.490Z,48.58
2022-12-31T10:01:24.090Z,44.72
2022-12-31T10:04:33.457Z,40.30
2022-12-31T10:07:31.032Z,39.78
2022-12-31T10:10:06.880Z,38.35
2022-12-31T10:13:17.097Z,39.63
2022-12-31T10:16:15.774Z,38.47
2022-12-31T10:19:40.413Z,39.92
2022-12-31T10:22:35.035Z,38.75
2022-12-31T10:25:47.669Z,41.45
2022-12-31T10:28:20.484Z,42.05
2022-12-31T10:31:14.025Z,42.17
2022-12-31T10:34:05.715Z,46.65
2022-12-31T10:37:08.494Z,43.20
2022-12-31T10:39:51.457Z,40.85
2022-12-31T10:42:48.916Z,44.83
2022-12-31T10:45:41.020Z,44.63
2022-12-31T10:48:57.580Z,46.83
2022-12-31T10:52:00.129Z,45.60
2022-12-31T10:54:54.899Z,44.53
2022-12-31T10:57:51.808Z,48.53
2022-12-31T11:00:24.503Z,48.35
2022-12-31T11:03:13.041Z,47.17
2022-12-31T11:05:55.466Z,45.33
2022-12-31T11:09:14.027Z,50.03
2022-12-31T11:12:09.613Z,40.53
2022-12-31T11:15:04.733Z,47.33
2022-12-31T11:18:15.582Z,44.15
2022-12-31T11:20:51.883Z,42.35
2022-12-31T11:24:03.519Z,42.90
2022-12-31T11:26:58.625Z,44.05
2022-12-31T11:29:51.052Z,45.75
2022-12-31T11:33:06.371Z,42.97
2022-12-31T11:36:01.425Z,41.95
2022-12-31T11:39:10.804Z,46.13
2022-12-31T11:41:59.018Z,44.30
2022-12-31T11:48:20.155Z,48.60
2022-12-31T11:51:10.677Z,46.95
2022-12-31T11:54:08.322Z,44.78
2022-12-31T11:56:41.528Z,51.83
2022-12-31T11:59:19.468Z,46.30
2022-12-31T12:02:16.249Z,42.30
2022-12-31T12:04:47.324Z,44.53
2022-12-31T12:07:17.512Z,51.35
2022-12-31T12:09:47.270Z,51.95
2022-12-31T12:12:15.688Z,50.75
2022-12-31T12:14:54.758Z,51.40
2022-12-31T12:17:34.441Z,53.42
2022-12-31T12:20:19.984Z,47.42
2022-12-31T12:22:57.431Z,49.63
2022-12-31T12:25:37.185Z,50.13
2022-12-31T12:28:24.344Z,51.20
2022-12-31T12:31:05.840Z,40.35
2022-12-31T12:33:46.575Z,44.47
2022-12-31T12:36:16.944Z,43.83
2022-12-31T12:38:45.106Z,43.58
2022-12-31T12:41:25.230Z,45.90
2022-12-31T12:44:14.304Z,48.60
2022-12-31T12:46:49.593Z,42.25
2022-12-31T12:49:38.528Z,46.17
2022-12-31T12:52:59.524Z,40.22
2022-12-31T12:56:00.574Z,43.20
2022-12-31T12:59:04.149Z,45.60
2022-12-31T13:02:34.548Z,43.33
2022-12-31T13:05:49.804Z,42.53
2022-12-31T13:08:50.519Z,37.70
2022-12-31T13:11:30.167Z,43.63
2022-12-31T13:14:10.825Z,41.63
2022-12-31T13:16:42.606Z,34.97
2022-12-31T13:19:49.655Z,41.90
2022-12-31T13:22:27.837Z,38.53
2022-12-31T13:25:22.899Z,41.85
2022-12-31T13:27:56.039Z,40.58
2022-12-31T13:30:40.083Z,40.53
2022-12-31T13:33:24.432Z,45.85
2022-12-31T13:36:10.301Z,43.20
2022-12-31T13:38:56.101Z,42.72
2022-12-31T13:41:36.155Z,43.78
2022-12-31T13:44:19.361Z,40.95
2022-12-31T13:47:29.782Z,46.50
2022-12-31T13:50:24.288Z,46.25
2022-12-31T13:53:16.710Z,40.15
2022-12-31T13:56:02.238Z,45.97
2022-12-31T13:58:53.768Z,38.28
2022-12-31T14:01:43.892Z,37.95
2022-12-31T14:05:17.864Z,43.60
2022-12-31T14:07:55.557Z,43.45
2022-12-31T14:10:42.792Z,37.88
2022-12-31T14:14:04.154Z,42.93
2022-12-31T14:16:49.912Z,44.83
2022-12-31T14:19:40.904Z,44.88
2022-12-31T14:22:52.654Z,37.88
2022-12-31T14:25:39.927Z,37.28
2022-12-31T14:28:35.630Z,35.87
2022-12-31T14:31:23.774Z,37.58
2022-12-31T14:34:26.487Z,38.72
2022-12-31T14:37:20.908Z,43.55
2022-12-31T14:40:25.053Z,37.15
2022-12-31T14:43:28.855Z,39.05
2022-12-31T14:46:35.787Z,34.67
2022-12-31T14:49:41.974Z,37.22
2022-12-31T14:52:27.590Z,35.83
2022-12-31T14:55:08.944Z,39.08
2022-12-31T14:58:17.196Z,32.03
2022-12-31T15:00:53.420Z,36.40
2022-12-31T15:03:45.393Z,34.97
2022-12-31T15:06:46.042Z,35.15
2022-12-31T15:09:20.354Z,32.10
2022-12-31T15:12:33.096Z,36.65
2022-12-31T15:15:51.599Z,33.38
2022-12-31T15:18:40.535Z,36.58
2022-12-31T15:22:04.085Z,34.80
2022-12-31T15:24:31.892Z,33.72
2022-12-31T15:27:04.187Z,34.10
2022-12-31T15:29:42.241Z,32.15
2022-12-31T15:32:27.773Z,36.63
2022-12-31T15:35:24.060Z,33.72
2022-12-31T15:38:13.400Z,32.92
2022-12-31T15:40:50.828Z,32.47
2022-12-31T15:43:41.349Z,33.57
2022-12-31T15:46:20.524Z,34.70
2022-12-31T15:49:02.043Z,31.35
2022-12-31T15:51:58.416Z,31.23
2022-12-31T15:54:50.260Z,36.58
2022-12-31T15:57:32.078Z,37.30
2022-12-31T16:00:04.584Z,31.58
2022-12-31T16:02:32.559Z,30.17
2022-12-31T16:05:00.560Z,31.75
2022-12-31T16:07:30.233Z,31.08
2022-12-31T16:10:02.029Z,33.97
2022-12-31T16:12:42.615Z,30.73
2022-12-31T16:15:28.076Z,34.28
2022-12-31T16:18:10.878Z,31.40
2022-12-31T16:20:48.653Z,33.00
2022-12-31T16:23:26.383Z,30.60
2022-12-31T16:25:59.884Z,33.60
2022-12-31T16:28:32.583Z,34.13
2022-12-31T16:31:07.062Z,36.67
2022-12-31T16:33:34.554Z,39.47
2022-12-31T16:36:05.318Z,39.00
2022-12-31T16:38:37.474Z,33.92
2022-12-31T16:41:15.865Z,36.20
2022-12-31T16:43:44.394Z,39.80
2022-12-31T16:46:27.715Z,37.95
2022-12-31T16:49:03.010Z,40.80
2022-12-31T16:51:33.936Z,39.75
2022-12-31T16:54:02.933Z,41.85
2022-12-31T16:56:38.579Z,38.47
2022-12-31T16:59:23.987Z,44.55
2022-12-31T17:01:56.020Z,42.70
2022-12-31T17:04:24.989Z,39.45
2022-12-31T17:06:52.573Z,40.58
2022-12-31T17:09:33.606Z,42.05
2022-12-31T17:12:17.041Z,44.97
2022-12-31T17:14:51.808Z,39.08
2022-12-31T17:17:27.568Z,43.97
2022-12-31T17:20:02.680Z,44.65
2022-12-31T17:22:41.543Z,47.58
2022-12-31T17:25:26.867Z,48.70
2022-12-31T17:28:02.853Z,46.85
2022-12-31T17:30:33.212Z,42.28
2022-12-31T17:33:27.658Z,47.40
2022-12-31T17:36:13.745Z,47.03
2022-12-31T17:38:41.583Z,47.38
2022-12-31T17:41:14.887Z,50.70
2022-12-31T17:43:43.001Z,53.20
2022-12-31T17:48:42.835Z,49.00
2022-12-31T17:51:14.596Z,53.20
2022-12-31T17:53:42.968Z,53.15
2022-12-31T17:58:53.581Z,42.33
2022-12-31T18:01:23.876Z,43.90
2022-12-31T18:03:51.452Z,55.30
2022-12-31T18:06:19.708Z,50.87
2022-12-31T18:08:47.525Z,52.10
2022-12-31T18:11:25.591Z,46.40
2022-12-31T18:13:54.707Z,55.38
2022-12-31T18:16:22.135Z,52.90
2022-12-31T18:18:50.001Z,54.27
2022-12-31T18:21:37.742Z,55.58
2022-12-31T18:24:05.958Z,62.67
2022-12-31T18:26:34.645Z,72.03
2022-12-31T18:29:20.023Z,64.45
2022-12-31T18:31:50.896Z,62.05
2022-12-31T18:34:18.920Z,80.78
2022-12-31T18:36:46.746Z,71.53
2022-12-31T18:39:14.306Z,74.40
2022-12-31T18:41:49.062Z,66.67
2022-12-31T18:44:17.137Z,74.25
2022-12-31T18:46:44.592Z,70.40
2022-12-31T18:49:12.075Z,68.32
2022-12-31T18:51:39.583Z,67.30
2022-12-31T18:54:11.546Z,67.78
2022-12-31T18:56:44.859Z,73.82
2022-12-31T18:59:14.568Z,76.93
2022-12-31T19:01:42.064Z,69.63
2022-12-31T19:04:26.527Z,76.28
2022-12-31T19:06:55.369Z,74.15
2022-12-31T19:09:44.802Z,72.28
2022-12-31T19:12:14.636Z,78.95
2022-12-31T19:14:42.074Z,72.80
2022-12-31T19:19:36.974Z,75.88
2022-12-31T19:22:04.383Z,71.03
2022-12-31T19:24:32.055Z,73.07
2022-12-31T19:27:01.550Z,75.00
2022-12-31T19:29:29.383Z,74.53
2022-12-31T19:31:58.366Z,78.35
2022-12-31T19:34:25.832Z,78.88
2022-12-31T19:36:53.283Z,79.75
2022-12-31T19:39:21.722Z,74.07
2022-12-31T19:41:56.463Z,79.18
2022-12-31T19:44:26.509Z,77.97
2022-12-31T19:46:54.072Z,77.80
2022-12-31T19:49:21.711Z,75.68
2022-12-31T19:51:49.194Z,87.50
2022-12-31T19:54:16.553Z,84.50
2022-12-31T19:56:44.078Z,86.07
2022-12-31T19:59:12.028Z,73.68
2022-12-31T20:01:39.707Z,69.75
2022-12-31T20:04:07.311Z,65.05
2022-12-31T20:06:36.019Z,67.30
2022-12-31T20:09:04.174Z,67.32
2022-12-31T20:11:31.527Z,67.35
2022-12-31T20:13:59.188Z,64.88
2022-12-31T20:16:27.152Z,66.82
2022-12-31T20:18:54.949Z,67.75
2022-12-31T20:21:26.243Z,64.78
2022-12-31T20:23:55.106Z,69.10
2022-12-31T20:26:25.545Z,77.70
2022-12-31T20:28:53.685Z,85.32
2022-12-31T20:31:25.170Z,83.75
2022-12-31T20:33:54.522Z,73.50
2022-12-31T20:36:22.819Z,79.10
2022-12-31T20:38:50.420Z,72.25
2022-12-31T20:41:23.281Z,72.23
2022-12-31T20:43:51.369Z,85.00
2022-12-31T20:46:22.866Z,82.57
2022-12-31T20:48:52.655Z,75.88
2022-12-31T20:51:21.585Z,81.72
2022-12-31T20:54:08.036Z,62.80
2022-12-31T20:56:38.612Z,71.32
2022-12-31T20:59:07.758Z,73.32
2022-12-31T21:01:55.450Z,76.18
2022-12-31T21:04:23.526Z,84.28
2022-12-31T21:06:52.309Z,80.78
2022-12-31T21:09:19.813Z,83.13
2022-12-31T21:12:05.404Z,77.93
2022-12-31T21:14:32.882Z,66.15
2022-12-31T21:17:01.565Z,66.68
2022-12-31T21:19:29.096Z,66.95
2022-12-31T21:21:56.472Z,66.35
2022-12-31T21:24:24.764Z,61.17
2022-12-31T21:29:22.996Z,59.45
2022-12-31T21:31:50.541Z,61.80
2022-12-31T21:34:18.035Z,63.30
2022-12-31T21:36:46.320Z,76.07
2022-12-31T21:39:13.738Z,74.57
2022-12-31T21:41:53.260Z,71.40
2022-12-31T21:44:23.662Z,72.20
2022-12-31T21:47:41.268Z,69.20
2022-12-31T21:50:09.996Z,71.57
2022-12-31T21:55:24.840Z,76.03
2022-12-31T21:58:25.367Z,76.63
2022-12-31T22:01:01.860Z,73.22
2022-12-31T22:03:29.581Z,77.43
2022-12-31T22:06:13.137Z,75.13
2022-12-31T22:08:44.810Z,77.57
2022-12-31T22:11:13.871Z,77.30
2022-12-31T22:13:41.718Z,79.35
2022-12-31T22:16:09.299Z,74.57
2022-12-31T22:18:39.345Z,71.88
2022-12-31T22:21:18.121Z,76.68
2022-12-31T22:23:50.119Z,67.20
2022-12-31T22:26:21.247Z,65.45
2022-12-31T22:28:55.875Z,67.68
2022-12-31T22:31:27.313Z,67.47
2022-12-31T22:33:54.710Z,69.00
2022-12-31T22:36:24.016Z,65.17
2022-12-31T22:38:56.087Z,68.47
2022-12-31T22:41:25.345Z,71.03
2022-12-31T22:44:02.713Z,67.80
2022-12-31T22:46:31.326Z,70.20
2022-12-31T22:49:00.831Z,66.57
2022-12-31T22:51:54.587Z,76.80
2022-12-31T22:54:17.151Z,75.68
2022-12-31T22:56:44.645Z,76.88
2022-12-31T22:59:12.060Z,78.77
2022-12-31T23:01:39.464Z,68.32
2022-12-31T23:04:07.023Z,78.53
2022-12-31T23:06:43.453Z,98.60
2022-12-31T23:09:32.842Z,122.90
2022-12-31T23:12:00.571Z,92.38
2022-12-31T23:14:46.822Z,98.10
2022-12-31T23:17:41.484Z,104.57
2022-12-31T23:20:34.545Z,110.00
2022-12-31T23:23:11.469Z,110.63
2022-12-31T23:25:44.045Z,119.88
2022-12-31T23:28:21.239Z,119.35
2022-12-31T23:30:51.452Z,124.88
2022-12-31T23:33:25.937Z,120.18
2022-12-31T23:36:07.413Z,117.15
2022-12-31T23:38:34.933Z,117.53
2022-12-31T23:41:18.271Z,128.07
2022-12-31T23:43:45.989Z,115.88
2022-12-31T23:46:14.422Z,111.43
2022-12-31T23:51:09.782Z,96.15
2022-12-31T23:53:40.180Z,98.72
2022-12-31T23:56:19.159Z,87.10
2022-12-31T23:58:55.399Z,85.55
